Time;durP1;ratioP1;P1;durP2;ratioP2;P2;SDS_P1;SDS_P2;PMS_P1;PMS_P2;Temp;Humidity;BMP_temperature;BMP_pressure;BME280_temperature;BME280_humidity;BME280_pressure;Samples;Min_cycle;Max_cycle;Signal;HPM_P1;HPM_P2
2023/11/18 00:02:40;;;;;;;;;;;;;;;;;;;;;
2023/11/18 00:05:47;;;;;;;;;;;;;;;2.96;98.00;100330.91;133557;1304;22605;-72
2023/11/18 00:09:14;;;;;;;;;;;;;;;;;;;;;
2023/11/18 00:12:40;;;;;;;;;;;;;;;;;;;;;
2023/11/18 00:16:42;;;;;;;;;;;;;;;2.94;98.08;100334.71;133546;1307;22507;-72
2023/11/18 00:20:05;;;;;;;;;;;;;;;;;;;;;
2023/11/18 00:23:30;;;;;;;;;;;;;;;2.90;98.13;100338.27;133527;1310;22481;-73
2023/11/18 00:27:06;;;;;;;;;;;;;;;2.90;98.18;100335.98;133468;1297;24568;-72
2023/11/18 00:30:29;;;;;;;;;;;;;;;2.91;98.26;100338.59;133573;1307;23243;-72
2023/11/18 00:33:33;;;;;;;;;;;;;;;2.91;98.48;100341.67;133474;1307;22695;-72
2023/11/18 00:36:55;;;;;;;;;;;;;;;2.91;98.61;100344.87;133499;1308;22436;-71
2023/11/18 00:40:19;;;;;;;;;;;;;;;2.92;98.67;100350.02;133536;1310;22521;-71
2023/11/18 00:43:50;;;;;;;;;;;;;;;;;;;;;
2023/11/18 00:47:26;;;;;;;;;;;;;;;;;;;;;
2023/11/18 00:50:46;;;;;;;;;;;;;;;2.93;98.87;100359.39;133535;1307;22451;-73
2023/11/18 00:53:58;;;;;;;;;;;;;;;2.96;98.74;100355.00;133596;1309;22519;-72
2023/11/18 00:57:31;;;;;;;;;;;;;;;;;;;;;
2023/11/18 01:00:54;;;;;;;;;;;;;;;2.97;98.95;100360.30;133496;1301;22586;-71
2023/11/18 01:04:02;;;;;;;;;;;;;;;2.97;99.23;100363.30;133451;1302;22481;-71
2023/11/18 01:07:16;;;;;;;;;;;;;;;2.98;99.32;100363.79;133542;1304;22556;-71
2023/11/18 01:10:43;;;;;;;;;;;;;;;2.98;99.20;100366.05;133532;1310;22516;-71
2023/11/18 01:14:09;;;;;;;;;;;;;;;;;;;;;
2023/11/18 01:17:33;;;;;;;;;;;;;;;;;;;;;
2023/11/18 01:21:23;;;;;;;;;;;;;;;3.00;99.40;100362.59;133545;1302;22467;-71
2023/11/18 01:24:24;;;;;;;;;;;;;;;;;;;;;
2023/11/18 01:27:49;;;;;;;;;;;;;;;;;;;;;
2023/11/18 01:31:16;;;;;;;;;;;;;;;3.02;99.72;100377.30;133528;1304;23595;-72
2023/11/18 01:34:37;;;;;;;;;;;;;;;;;;;;;
2023/11/18 01:38:15;;;;;;;;;;;;;;;;;;;;;
2023/11/18 01:41:43;;;;;;;;;;;;;;;3.03;99.69;100380.72;133452;1302;23175;-71
2023/11/18 01:44:56;;;;;;;;;;;;;;;3.04;99.85;100385.33;133425;1303;22482;-71
2023/11/18 01:48:30;;;;;;;;;;;;;;;3.04;99.97;100385.15;133565;1310;22447;-72
2023/11/18 01:51:56;;;;;;;;;;;;;;;3.05;99.88;100384.77;133463;1304;22508;-71
2023/11/18 01:55:13;;;;;;;;;;;;;;;3.05;99.84;100379.33;133550;1304;22498;-70
2023/11/18 01:58:25;;;;;;;;;;;;;;;3.06;100.00;100381.38;133545;1307;22468;-71
2023/11/18 02:01:43;;;;;;;;;;;;;;;3.05;100.00;100383.38;133548;1310;22454;-71
2023/11/18 02:04:44;;;;;;;;;;;;;;;3.05;100.00;100387.20;133448;1310;22517;-71
2023/11/18 02:08:09;;;;;;;;;;;;;;;;;;;;;
2023/11/18 02:11:19;;;;;;;;;;;;;;;3.05;100.00;100401.48;133539;1310;22575;-72
2023/11/18 02:14:47;;;;;;;;;;;;;;;;;;;;;
2023/11/18 02:18:03;;;;;;;;;;;;;;;3.05;100.00;100417.27;133440;1304;23145;-71
2023/11/18 02:21:20;;;;;;;;;;;;;;;3.03;100.00;100420.52;133573;1307;23616;-71
2023/11/18 02:24:25;;;;;;;;;;;;;;;3.01;100.00;100426.96;133541;1304;22581;-72
2023/11/18 02:27:56;;;;;;;;;;;;;;;;;;;;;
2023/11/18 02:31:24;;;;;;;;;;;;;;;3.00;100.00;100433.84;133563;1310;23414;-72
2023/11/18 02:34:38;;;;;;;;;;;;;;;2.99;100.00;100437.06;133446;1303;22591;-71
2023/11/18 02:37:51;;;;;;;;;;;;;;;2.98;100.00;100437.66;133397;1303;22479;-72
2023/11/18 02:41:10;;;;;;;;;;;;;;;2.98;100.00;100446.63;133549;1307;22670;-71
2023/11/18 02:44:20;;;;;;;;;;;;;;;2.97;100.00;100440.05;133514;1297;23264;-71
2023/11/18 02:47:43;;;;;;;;;;;;;;;2.96;100.00;100443.61;133488;1303;22510;-71
2023/11/18 02:50:52;;;;;;;;;;;;;;;2.95;100.00;100453.42;133580;1303;22471;-71
2023/11/18 02:54:05;;;;;;;;;;;;;;;2.95;100.00;100456.74;133468;1302;22473;-71
2023/11/18 02:57:30;;;;;;;;;;;;;;;2.97;100.00;100468.00;133590;1310;22472;-72
2023/11/18 03:00:44;;;;;;;;;;;;;;;2.96;100.00;100470.15;133579;1304;23296;-71
2023/11/18 03:04:19;;;;;;;;;;;;;;;;;;;;;
2023/11/18 03:07:31;;;;;;;;;;;;;;;2.97;100.00;100480.73;133560;1310;23610;-71
2023/11/18 03:10:55;;;;;;;;;;;;;;;2.98;100.00;100492.39;133544;1310;23138;-72
2023/11/18 03:14:19;;;;;;;;;;;;;;;2.99;100.00;100497.58;133580;1310;22718;-71
2023/11/18 03:17:36;;;;;;;;;;;;;;;2.98;100.00;100502.37;133447;1304;23511;-70
2023/11/18 03:20:52;;;;;;;;;;;;;;;2.98;100.00;100506.88;133562;1310;22577;-71
2023/11/18 03:24:05;;;;;;;;;;;;;;;2.98;100.00;100508.09;133503;1310;22502;-71
2023/11/18 03:27:54;;;;;;;;;;;;;;;2.98;100.00;100512.10;133380;1305;22496;-72
2023/11/18 03:31:04;;;;;;;;;;;;;;;2.99;100.00;100519.08;133556;1302;23929;-71
2023/11/18 03:38:56;;;;;;;;;;;;;;;2.92;100.00;100526.02;133599;1307;22526;-71
2023/11/18 03:41:57;;;;;;;;;;;;;;;2.91;100.00;100529.42;133501;1304;22500;-71
2023/11/18 03:45:26;;;;;;;;;;;;;;;;;;;;;
2023/11/18 03:48:55;;;;;;;;;;;;;;;2.90;100.00;100525.27;133555;1302;22523;-72
2023/11/18 03:52:20;;;;;;;;;;;;;;;2.90;100.00;100533.66;133557;1302;23437;-71
2023/11/18 03:55:25;;;;;;;;;;;;;;;2.89;100.00;100537.74;133522;1294;22493;-71
2023/11/18 03:58:48;;;;;;;;;;;;;;;;;;;;;
2023/11/18 04:02:11;;;;;;;;;;;;;;;2.87;100.00;100537.36;133459;1310;22483;-71
2023/11/18 04:05:26;;;;;;;;;;;;;;;2.87;100.00;100540.67;133562;1309;22480;-72
2023/11/18 04:08:34;;;;;;;;;;;;;;;2.85;100.00;100549.36;133359;1310;23284;-72
2023/11/18 04:11:46;;;;;;;;;;;;;;;;;;;;;
2023/11/18 04:15:14;;;;;;;;;;;;;;;2.84;100.00;100558.39;133412;1310;22483;-71
2023/11/18 04:18:42;;;;;;;;;;;;;;;2.85;100.00;100563.05;133540;1310;22525;-71
2023/11/18 04:21:56;;;;;;;;;;;;;;;2.82;100.00;100564.23;133469;1303;22447;-71
2023/11/18 04:25:09;;;;;;;;;;;;;;;2.77;100.00;100571.45;133559;1310;22521;-71
2023/11/18 04:28:15;;;;;;;;;;;;;;;2.65;99.99;100571.56;133561;1310;23235;-71
2023/11/18 04:31:33;;;;;;;;;;;;;;;2.53;99.86;100574.65;133521;1310;22466;-71
2023/11/18 04:34:53;;;;;;;;;;;;;;;;;;;;;
2023/11/18 04:37:54;;;;;;;;;;;;;;;2.38;99.76;100580.06;133548;1309;22465;-71
2023/11/18 04:40:57;;;;;;;;;;;;;;;2.31;99.78;100585.02;133575;1303;22507;-70
2023/11/18 04:44:11;;;;;;;;;;;;;;;2.25;99.55;100584.02;133411;1303;22470;-71
2023/11/18 04:47:55;;;;;;;;;;;;;;;2.19;99.56;100588.46;133531;1303;23601;-71
2023/11/18 04:51:21;;;;;;;;;;;;;;;2.13;99.77;100593.52;133582;1309;23060;-72
2023/11/18 04:54:47;;;;;;;;;;;;;;;;;;;;;
2023/11/18 04:57:54;;;;;;;;;;;;;;;2.09;100.00;100600.95;133581;1310;23661;-71
2023/11/18 05:01:22;;;;;;;;;;;;;;;2.09;100.00;100592.98;133574;1303;22484;-72
2023/11/18 05:04:44;;;;;;;;;;;;;;;2.08;100.00;100593.55;133578;1302;22487;-71
2023/11/18 05:07:54;;;;;;;;;;;;;;;2.08;100.00;100596.69;133576;1303;22509;-71
2023/11/18 05:11:00;;;;;;;;;;;;;;;2.07;100.00;100600.05;133476;1303;22474;-71
2023/11/18 05:14:07;;;;;;;;;;;;;;;2.08;100.00;100599.98;133531;1310;22603;-73
2023/11/18 05:17:11;;;;;;;;;;;;;;;2.09;100.00;100607.59;133544;1309;23401;-71
2023/11/18 05:20:14;;;;;;;;;;;;;;;2.11;100.00;100614.48;133576;1310;22491;-71
2023/11/18 05:23:29;;;;;;;;;;;;;;;;;;;;;
2023/11/18 05:26:41;;;;;;;;;;;;;;;2.15;100.00;100613.66;133522;1304;22517;-73
2023/11/18 05:29:53;;;;;;;;;;;;;;;2.17;100.00;100619.30;133553;1310;22472;-72
2023/11/18 05:33:17;;;;;;;;;;;;;;;2.19;100.00;100627.36;133566;1303;22483;-72
2023/11/18 05:36:37;;;;;;;;;;;;;;;;;;;;;
2023/11/18 05:39:43;;;;;;;;;;;;;;;2.23;100.00;100630.23;133540;1309;23240;-70
2023/11/18 05:42:48;;;;;;;;;;;;;;;2.26;100.00;100626.44;133551;1303;22469;-70
2023/11/18 05:49:14;;;;;;;;;;;;;;;2.29;100.00;100634.08;133496;1304;22580;-70
2023/11/18 05:52:40;;;;;;;;;;;;;;;2.30;100.00;100641.32;133501;1309;22515;-71
2023/11/18 05:55:42;;;;;;;;;;;;;;;2.32;100.00;100642.77;133559;1310;22480;-71
2023/11/18 05:58:57;;;;;;;;;;;;;;;2.35;100.00;100644.00;133568;1304;23190;-71
2023/11/18 06:02:19;;;;;;;;;;;;;;;;;;;;;
2023/11/18 06:05:34;;;;;;;;;;;;;;;2.36;100.00;100639.15;133549;1303;22513;-70
2023/11/18 06:08:46;;;;;;;;;;;;;;;2.38;100.00;100648.63;133555;1301;22482;-72
2023/11/18 06:12:10;;;;;;;;;;;;;;;2.38;100.00;100656.48;133449;1301;22461;-69
2023/11/18 06:15:18;;;;;;;;;;;;;;;2.39;100.00;100662.55;133509;1309;22528;-70
2023/11/18 06:18:27;;;;;;;;;;;;;;;2.38;100.00;100666.46;133468;1307;23305;-70
2023/11/18 06:21:37;;;;;;;;;;;;;;;2.38;100.00;100672.77;133529;1307;22471;-71
2023/11/18 06:24:58;;;;;;;;;;;;;;;2.38;100.00;100679.90;133380;1307;23288;-73
2023/11/18 06:27:59;;;;;;;;;;;;;;;2.40;100.00;100680.84;133540;1309;22565;-71
2023/11/18 06:31:35;;;;;;;;;;;;;;;2.40;100.00;100685.88;133561;1308;22643;-72
2023/11/18 06:34:44;;;;;;;;;;;;;;;2.42;100.00;100684.55;133576;1302;22500;-74
2023/11/18 06:37:58;;;;;;;;;;;;;;;;;;;;;
2023/11/18 06:41:02;;;;;;;;;;;;;;;2.41;100.00;100690.31;133580;1302;22489;-73
2023/11/18 06:44:33;;;;;;;;;;;;;;;2.42;99.98;100690.46;133486;1310;22549;-74
2023/11/18 06:47:44;;;;;;;;;;;;;;;2.43;100.00;100700.03;133580;1302;22584;-72
2023/11/18 06:50:47;;;;;;;;;;;;;;;2.43;99.96;100701.25;133505;1303;23197;-72
2023/11/18 06:54:10;;;;;;;;;;;;;;;2.44;99.96;100703.94;133497;1304;22627;-73
2023/11/18 06:57:16;;;;;;;;;;;;;;;2.45;99.91;100709.98;133466;1302;23268;-73
2023/11/18 07:00:17;;;;;;;;;;;;;;;2.46;100.00;100716.52;133564;1302;22587;-73
2023/11/18 07:03:25;;;;;;;;;;;;;;;2.48;99.93;100714.88;133468;1304;22444;-72
2023/11/18 07:06:29;;;;;;;;;;;;;;;2.50;99.95;100719.80;133601;1307;22487;-73
2023/11/18 07:09:37;;;;;;;;;;;;;;;2.53;99.96;100716.65;133572;1301;22571;-73
2023/11/18 07:12:40;;;;;;;;;;;;;;;2.54;100.00;100724.60;133469;1301;22655;-74
2023/11/18 07:15:43;;;;;;;;;;;;;;;2.54;100.00;100725.66;133510;1302;23312;-74
2023/11/18 07:18:50;;;;;;;;;;;;;;;2.55;100.00;100726.85;133565;1302;22706;-78
2023/11/18 07:22:11;;;;;;;;;;;;;;;2.57;100.00;100730.03;133484;1303;23288;-74
2023/11/18 07:25:21;;;;;;;;;;;;;;;2.59;100.00;100733.88;133561;1304;22468;-76
2023/11/18 07:28:43;;;;;;;;;;;;;;;;;;;;;
2023/11/18 07:32:00;;;;;;;;;;;;;;;2.63;100.00;100741.44;133512;1302;22541;-74
2023/11/18 07:35:01;;;;;;;;;;;;;;;2.66;100.00;100742.85;133542;1301;22544;-72
2023/11/18 07:38:33;;;;;;;;;;;;;;;2.68;100.00;100741.81;133570;1308;22482;-73
2023/11/18 07:41:34;;;;;;;;;;;;;;;2.70;99.97;100746.25;133580;1305;22639;-75
2023/11/18 07:44:41;;;;;;;;;;;;;;;2.73;100.00;100748.69;133503;1307;22649;-72
2023/11/18 07:47:48;;;;;;;;;;;;;;;2.76;99.86;100748.86;133478;1307;23300;-73
2023/11/18 07:51:43;;;;;;;;;;;;;;;2.78;99.98;100753.23;133603;1307;23192;-70
2023/11/18 07:54:56;;;;;;;;;;;;;;;2.80;99.86;100754.86;133530;1302;22471;-77
2023/11/18 07:58:14;;;;;;;;;;;;;;;2.85;99.92;100758.41;133504;1301;22499;-72
2023/11/18 08:01:43;;;;;;;;;;;;;;;2.89;99.92;100755.67;133494;1304;23436;-71
2023/11/18 08:05:39;;;;;;;;;;;;;;;2.94;99.78;100755.55;133558;1302;22561;-75
2023/11/18 08:08:16;;;;;;;;;;;;;;;2.97;99.78;100760.92;133460;1299;22587;-72
2023/11/18 08:11:27;;;;;;;;;;;;;;;3.01;99.84;100757.65;133528;1302;22495;-73
2023/11/18 08:14:33;;;;;;;;;;;;;;;3.06;99.77;100763.29;133568;1303;22534;-70
2023/11/18 08:18:01;;;;;;;;;;;;;;;3.08;99.80;100767.32;133576;1304;23141;-72
2023/11/18 08:21:14;;;;;;;;;;;;;;;3.11;99.78;100773.58;133497;1308;23272;-72
2023/11/18 08:24:34;;;;;;;;;;;;;;;3.13;99.75;100774.34;133491;1301;23203;-73
2023/11/18 08:27:40;;;;;;;;;;;;;;;3.12;99.75;100775.44;133399;1304;22487;-71
2023/11/18 08:30:51;;;;;;;;;;;;;;;;;;;;;
2023/11/18 08:33:58;;;;;;;;;;;;;;;3.07;99.37;100782.95;133636;1302;22613;-75
2023/11/18 08:37:09;;;;;;;;;;;;;;;3.03;99.35;100783.55;133480;1303;22480;-68
2023/11/18 08:40:18;;;;;;;;;;;;;;;2.99;99.01;100786.46;133478;1309;22474;-72
2023/11/18 08:43:39;;;;;;;;;;;;;;;2.97;99.39;100785.73;133418;1304;22492;-74
2023/11/18 08:47:08;;;;;;;;;;;;;;;2.95;99.40;100795.27;133453;1301;22597;-74
2023/11/18 08:54:36;;;;;;;;;;;;;;;2.94;99.55;100806.41;133356;1310;22486;-74
2023/11/18 08:58:11;;;;;;;;;;;;;;;;;;;;;
2023/11/18 09:01:54;;;;;;;;;;;;;;;;;;;;;
2023/11/18 09:05:56;;;;;;;;;;;;;;;2.94;99.84;100822.60;133272;1302;22470;-75
2023/11/18 09:09:40;;;;;;;;;;;;;;;;;;;;;
2023/11/18 09:13:13;;;;;;;;;;;;;;;2.96;99.87;100826.36;133632;1307;22506;-74
2023/11/18 09:17:21;;;;;;;;;;;;;;;2.94;99.86;100835.70;133564;1303;22547;-76
2023/11/18 09:20:58;;;;;;;;;;;;;;;;;;;;;
2023/11/18 09:24:42;;;;;;;;;;;;;;;;;;;;;
2023/11/18 09:28:13;;;;;;;;;;;;;;;;;;;;;
2023/11/18 09:32:19;;;;;;;;;;;;;;;2.85;99.99;100854.34;133523;1303;22496;-76
2023/11/18 09:39:28;;;;;;;;;;;;;;;2.87;100.00;100872.73;133516;1303;22617;-77
2023/11/18 09:43:19;;;;;;;;;;;;;;;;;;;;;
2023/11/18 09:46:47;;;;;;;;;;;;;;;;;;;;;
2023/11/18 09:50:41;;;;;;;;;;;;;;;;;;;;;
2023/11/18 10:06:01;;;;;;;;;;;;;;;;;;;;;
2023/11/18 10:09:30;;;;;;;;;;;;;;;;;;;;;
2023/11/18 10:13:15;;;;;;;;;;;;;;;;;;;;;
2023/11/18 10:16:58;;;;;;;;;;;;;;;2.66;99.52;100903.93;133083;1305;22546;-75
2023/11/18 10:20:50;;;;;;;;;;;;;;;;;;;;;
2023/11/18 10:24:33;;;;;;;;;;;;;;;;;;;;;
2023/11/18 10:28:10;;;;;;;;;;;;;;;2.70;98.95;100908.02;133384;1304;23252;-76
2023/11/18 10:32:07;;;;;;;;;;;;;;;;;;;;;
2023/11/18 10:35:20;;;;;;;;;;;;;;;2.67;98.71;100915.73;133526;1307;22540;-76
2023/11/18 10:39:12;;;;;;;;;;;;;;;;;;;;;
2023/11/18 10:46:27;;;;;;;;;;;;;;;2.60;98.21;100927.20;133493;1302;22951;-77
2023/11/18 10:49:58;;;;;;;;;;;;;;;;;;;;;
2023/11/18 10:53:13;;;;;;;;;;;;;;;;;;;;;
2023/11/18 10:57:40;;;;;;;;;;;;;;;;;;;;;
2023/11/18 11:01:10;;;;;;;;;;;;;;;;;;;;;
2023/11/18 11:12:58;;;;;;;;;;;;;;;2.37;98.02;100951.48;133005;1307;22545;-77
2023/11/18 11:16:24;;;;;;;;;;;;;;;;;;;;;
2023/11/18 11:20:29;;;;;;;;;;;;;;;2.37;98.26;100966.48;133150;1312;22488;-80
2023/11/18 11:32:38;;;;;;;;;;;;;;;2.36;98.23;100968.33;132681;1318;22628;-76
2023/11/18 11:40:09;;;;;;;;;;;;;;;;;;;;;
2023/11/18 11:47:28;;;;;;;;;;;;;;;2.41;98.20;100978.16;133223;1302;23270;-74
2023/11/18 11:50:43;;;;;;;;;;;;;;;2.41;98.27;100979.03;133434;1307;22563;-74
2023/11/18 11:54:14;;;;;;;;;;;;;;;2.41;98.13;100989.48;133460;1309;22450;-77
2023/11/18 11:57:41;;;;;;;;;;;;;;;2.48;98.67;100988.33;133333;1302;22554;-75
2023/11/18 12:01:17;;;;;;;;;;;;;;;;;;;;;
2023/11/18 12:05:27;;;;;;;;;;;;;;;2.55;98.35;100986.20;133570;1308;22463;-73
2023/11/18 12:08:41;;;;;;;;;;;;;;;;;;;;;
2023/11/18 12:11:56;;;;;;;;;;;;;;;2.70;98.64;100980.73;133571;1306;23230;-77
2023/11/18 12:15:17;;;;;;;;;;;;;;;2.77;98.70;100979.23;133525;1302;22483;-74
2023/11/18 12:18:56;;;;;;;;;;;;;;;2.83;98.64;100983.57;133570;1303;22548;-77
2023/11/18 12:25:57;;;;;;;;;;;;;;;2.94;98.53;100990.77;133574;1307;22460;-73
2023/11/18 12:30:29;;;;;;;;;;;;;;;2.93;98.42;100994.67;133563;1309;22491;-73
2023/11/18 12:33:19;;;;;;;;;;;;;;;;;;;;;
2023/11/18 12:36:48;;;;;;;;;;;;;;;3.03;98.29;100990.73;133459;1302;22509;-74
2023/11/18 12:40:30;;;;;;;;;;;;;;;3.09;98.23;100996.99;133611;1303;22464;-75
2023/11/18 12:44:18;;;;;;;;;;;;;;;;;;;;;
2023/11/18 12:47:42;;;;;;;;;;;;;;;3.18;97.78;100987.33;132869;1311;22514;-73
2023/11/18 12:50:55;;;;;;;;;;;;;;;3.24;97.93;100983.44;132867;1308;22476;-73
2023/11/18 12:54:31;;;;;;;;;;;;;;;;;;;;;
2023/11/18 12:57:42;;;;;;;;;;;;;;;;;;;;;
2023/11/18 13:05:22;;;;;;;;;;;;;;;3.71;97.33;100986.50;133078;1310;22527;-73
2023/11/18 13:08:50;;;;;;;;;;;;;;;3.74;96.72;100988.20;133078;1307;22572;-73
2023/11/18 13:12:23;;;;;;;;;;;;;;;3.69;96.55;100990.48;133055;1308;22501;-73
2023/11/18 13:15:30;;;;;;;;;;;;;;;3.72;96.42;100988.16;133051;1313;22474;-74
2023/11/18 13:18:55;;;;;;;;;;;;;;;3.72;96.00;100992.92;133079;1311;22498;-72
2023/11/18 13:22:31;;;;;;;;;;;;;;;3.73;96.18;100990.24;133082;1310;22685;-75
2023/11/18 13:25:55;;;;;;;;;;;;;;;3.75;96.43;100987.43;133007;1313;22761;-74
2023/11/18 13:29:40;;;;;;;;;;;;;;;;;;;;;
2023/11/18 13:33:03;;;;;;;;;;;;;;;;;;;;;
2023/11/18 13:36:24;;;;;;;;;;;;;;;;;;;;;
2023/11/18 13:40:12;;;;;;;;;;;;;;;3.67;95.28;101000.62;133514;1304;22497;-75
2023/11/18 13:43:44;;;;;;;;;;;;;;;3.64;95.16;101000.13;133507;1305;22483;-75
2023/11/18 13:46:48;;;;;;;;;;;;;;;3.59;95.09;100997.57;133463;1306;22485;-74
2023/11/18 13:54:32;;;;;;;;;;;;;;;3.48;94.68;101005.99;133534;1304;22489;-77
2023/11/18 14:08:50;;;;;;;;;;;;;;;3.55;94.86;101008.70;133565;1305;22552;-74
2023/11/18 14:16:09;;;;;;;;;;;;;;;3.52;94.66;100999.79;133514;1304;23353;-74
2023/11/18 14:23:41;;;;;;;;;;;;;;;;;;;;;
2023/11/18 14:27:37;;;;;;;;;;;;;;;;;;;;;
2023/11/18 14:31:14;;;;;;;;;;;;;;;3.44;94.57;101001.04;133546;1309;22559;-75
2023/11/18 14:35:07;;;;;;;;;;;;;;;3.44;94.51;101003.48;133514;1304;22500;-75
2023/11/18 14:38:48;;;;;;;;;;;;;;;3.42;94.44;101008.54;133408;1307;22549;-76
2023/11/18 14:43:09;;;;;;;;;;;;;;;3.41;94.15;101008.75;133524;1304;22479;-73
2023/11/18 14:50:20;;;;;;;;;;;;;;;3.31;94.39;101011.85;133538;1310;22594;-74
2023/11/18 14:54:08;;;;;;;;;;;;;;;;;;;;;
2023/11/18 15:01:57;;;;;;;;;;;;;;;;;;;;;
2023/11/18 15:09:44;;;;;;;;;;;;;;;;;;;;;
2023/11/18 15:13:12;;;;;;;;;;;;;;;3.21;93.47;101017.56;133353;1310;22503;-75
2023/11/18 15:16:43;;;;;;;;;;;;;;;3.20;93.55;101022.32;133312;1303;22578;-73
2023/11/18 15:20:14;;;;;;;;;;;;;;;;;;;;;
2023/11/18 15:23:59;;;;;;;;;;;;;;;;;;;;;
2023/11/18 15:27:10;;;;;;;;;;;;;;;3.14;93.71;101012.89;133545;1307;22503;-75
2023/11/18 15:30:44;;;;;;;;;;;;;;;;;;;;;
2023/11/18 15:34:37;;;;;;;;;;;;;;;3.05;93.22;101017.36;133331;1307;22604;-74
2023/11/18 15:39:03;;;;;;;;;;;;;;;3.07;93.73;101015.46;133546;1307;22518;-74
2023/11/18 15:42:05;;;;;;;;;;;;;;;;;;;;;
2023/11/18 15:46:20;;;;;;;;;;;;;;;3.06;93.72;101011.46;133538;1310;23027;-76
2023/11/18 15:49:36;;;;;;;;;;;;;;;3.04;93.41;101017.23;133496;1303;22702;-76
2023/11/18 15:53:33;;;;;;;;;;;;;;;;;;;;;
2023/11/18 16:00:55;;;;;;;;;;;;;;;;;;;;;
2023/11/18 16:05:03;;;;;;;;;;;;;;;2.71;93.25;101011.60;133368;1310;22623;-74
2023/11/18 16:08:03;;;;;;;;;;;;;;;2.63;93.73;101008.07;133479;1304;22618;-75
2023/11/18 16:15:26;;;;;;;;;;;;;;;2.48;93.88;101016.12;133542;1303;22462;-74
2023/11/18 16:19:05;;;;;;;;;;;;;;;;;;;;;
2023/11/18 16:22:17;;;;;;;;;;;;;;;;;;;;;
2023/11/18 16:26:21;;;;;;;;;;;;;;;;;;;;;
2023/11/18 16:29:52;;;;;;;;;;;;;;;;;;;;;
2023/11/18 16:33:35;;;;;;;;;;;;;;;;;;;;;
2023/11/18 16:37:56;;;;;;;;;;;;;;;2.22;93.95;101031.66;133566;1310;22480;-74
2023/11/18 16:41:07;;;;;;;;;;;;;;;;;;;;;
2023/11/18 16:48:06;;;;;;;;;;;;;;;2.06;93.81;101040.11;133493;1304;22683;-75
2023/11/18 16:52:01;;;;;;;;;;;;;;;;;;;;;
2023/11/18 17:03:21;;;;;;;;;;;;;;;;;;;;;
2023/11/18 17:06:51;;;;;;;;;;;;;;;;;;;;;
2023/11/18 17:10:29;;;;;;;;;;;;;;;1.94;93.92;101047.41;133125;1313;23388;-74
2023/11/18 17:13:49;;;;;;;;;;;;;;;1.94;94.20;101037.30;133169;1310;22506;-73
2023/11/18 17:17:10;;;;;;;;;;;;;;;;;;;;;
2023/11/18 17:21:26;;;;;;;;;;;;;;;1.86;94.33;101023.65;133455;1310;22504;-75
2023/11/18 17:24:13;;;;;;;;;;;;;;;1.86;94.47;101023.30;133498;1310;23455;-74
2023/11/18 17:27:52;;;;;;;;;;;;;;;1.86;94.52;101029.94;133557;1310;22606;-76
2023/11/18 17:31:41;;;;;;;;;;;;;;;;;;;;;
2023/11/18 17:35:54;;;;;;;;;;;;;;;1.81;94.60;101021.83;133549;1307;22508;-75
2023/11/18 17:39:07;;;;;;;;;;;;;;;1.75;94.31;101024.42;133542;1310;22516;-76
2023/11/18 17:42:37;;;;;;;;;;;;;;;1.63;94.22;101027.20;133463;1310;22506;-78
2023/11/18 17:46:26;;;;;;;;;;;;;;;1.60;94.38;101034.70;133518;1310;22473;-75
2023/11/18 17:49:40;;;;;;;;;;;;;;;;;;;;;
2023/11/18 17:53:04;;;;;;;;;;;;;;;1.62;94.76;101038.13;133550;1301;22463;-74
2023/11/18 17:56:35;;;;;;;;;;;;;;;1.54;94.51;101025.45;133532;1302;23372;-74
2023/11/18 18:00:16;;;;;;;;;;;;;;;1.49;94.71;101025.95;133559;1306;23092;-74
2023/11/18 18:03:44;;;;;;;;;;;;;;;;;;;;;
2023/11/18 18:07:45;;;;;;;;;;;;;;;1.46;94.93;101028.04;133369;1309;22587;-74
2023/11/18 18:11:18;;;;;;;;;;;;;;;;;;;;;
2023/11/18 18:15:01;;;;;;;;;;;;;;;;;;;;;
2023/11/18 18:18:21;;;;;;;;;;;;;;;1.28;95.40;101014.00;133541;1309;22519;-74
2023/11/18 18:21:39;;;;;;;;;;;;;;;;;;;;;
2023/11/18 18:25:04;;;;;;;;;;;;;;;;;;;;;
2023/11/18 18:28:29;;;;;;;;;;;;;;;1.27;95.89;100989.84;133547;1310;22482;-75
2023/11/18 18:32:12;;;;;;;;;;;;;;;1.29;96.32;100994.08;133480;1303;22630;-75
2023/11/18 18:36:03;;;;;;;;;;;;;;;;;;;;;
2023/11/18 18:40:01;;;;;;;;;;;;;;;;;;;;;
2023/11/18 18:43:19;;;;;;;;;;;;;;;1.43;96.80;100998.54;133159;1306;22496;-74
2023/11/18 18:46:45;;;;;;;;;;;;;;;1.45;96.75;100996.53;133063;1305;22523;-74
2023/11/18 18:50:38;;;;;;;;;;;;;;;;;;;;;
2023/11/18 18:54:05;;;;;;;;;;;;;;;;;;;;;
2023/11/18 19:01:16;;;;;;;;;;;;;;;1.55;97.41;100975.34;133129;1306;22536;-74
2023/11/18 19:08:52;;;;;;;;;;;;;;;;;;;;;
2023/11/18 19:13:00;;;;;;;;;;;;;;;1.52;97.72;100966.96;133380;1310;22483;-73
2023/11/18 19:16:36;;;;;;;;;;;;;;;;;;;;;
2023/11/18 19:20:12;;;;;;;;;;;;;;;;;;;;;
2023/11/18 19:23:33;;;;;;;;;;;;;;;1.56;97.81;100963.77;133452;1303;22515;-73
2023/11/18 19:27:09;;;;;;;;;;;;;;;;;;;;;
2023/11/18 19:30:55;;;;;;;;;;;;;;;1.56;97.92;100961.86;133535;1303;22493;-76
2023/11/18 19:34:21;;;;;;;;;;;;;;;;;;;;;
2023/11/18 19:37:55;;;;;;;;;;;;;;;1.53;98.03;100968.34;133561;1309;22652;-73
2023/11/18 19:42:08;;;;;;;;;;;;;;;;;;;;;
2023/11/18 19:45:48;;;;;;;;;;;;;;;;;;;;;
2023/11/18 19:50:02;;;;;;;;;;;;;;;;;;;;;
2023/11/18 19:53:22;;;;;;;;;;;;;;;;;;;;;
2023/11/18 20:04:41;;;;;;;;;;;;;;;;;;;;;
2023/11/18 20:12:26;;;;;;;;;;;;;;;1.59;98.51;100919.52;133369;1304;22496;-76
2023/11/18 20:16:10;;;;;;;;;;;;;;;1.58;98.59;100913.23;133349;1303;23656;-77
2023/11/18 20:19:15;;;;;;;;;;;;;;;1.58;98.45;100915.02;133537;1307;22479;-75
2023/11/18 20:22:25;;;;;;;;;;;;;;;1.57;98.45;100912.09;133552;1303;23150;-74
2023/11/18 20:33:40;;;;;;;;;;;;;;;;;;;;;
2023/11/18 20:41:04;;;;;;;;;;;;;;;;;;;;;
2023/11/18 20:44:48;;;;;;;;;;;;;;;1.50;98.19;100878.54;133519;1303;22535;-76
2023/11/18 20:48:00;;;;;;;;;;;;;;;;;;;;;
2023/11/18 20:51:23;;;;;;;;;;;;;;;1.44;98.03;100876.09;133554;1309;22461;-76
2023/11/18 20:55:38;;;;;;;;;;;;;;;1.42;98.08;100880.02;133538;1306;22480;-74
2023/11/18 20:58:49;;;;;;;;;;;;;;;1.38;97.97;100869.64;133240;1307;23268;-76
2023/11/18 21:02:20;;;;;;;;;;;;;;;1.34;98.01;100873.15;133553;1309;22458;-74
2023/11/18 21:05:53;;;;;;;;;;;;;;;;;;;;;
2023/11/18 21:09:48;;;;;;;;;;;;;;;;;;;;;
2023/11/18 21:17:11;;;;;;;;;;;;;;;1.20;97.94;100853.76;133461;1301;23186;-77
2023/11/18 21:20:34;;;;;;;;;;;;;;;1.17;97.97;100851.33;133550;1304;23041;-75
2023/11/18 21:27:50;;;;;;;;;;;;;;;1.10;97.90;100841.79;133497;1302;22463;-75
2023/11/18 21:32:01;;;;;;;;;;;;;;;;;;;;;
2023/11/18 21:38:47;;;;;;;;;;;;;;;1.02;98.00;100858.61;133503;1306;22468;-73
2023/11/18 21:42:22;;;;;;;;;;;;;;;;;;;;;
2023/11/18 21:45:57;;;;;;;;;;;;;;;;;;;;;
2023/11/18 21:49:34;;;;;;;;;;;;;;;1.07;97.94;100852.42;133692;1304;22474;-75
2023/11/18 21:52:52;;;;;;;;;;;;;;;1.05;98.10;100835.11;133511;1303;22672;-74
2023/11/18 21:56:37;;;;;;;;;;;;;;;1.06;98.15;100826.67;133662;1302;23347;-75
2023/11/18 22:00:16;;;;;;;;;;;;;;;1.04;98.04;100818.97;133510;1304;22519;-74
2023/11/18 22:04:08;;;;;;;;;;;;;;;1.00;98.00;100807.38;133613;1303;22577;-75
2023/11/18 22:07:20;;;;;;;;;;;;;;;0.96;98.06;100809.67;133654;1308;22457;-75
2023/11/18 22:10:23;;;;;;;;;;;;;;;0.94;98.14;100801.13;133684;1304;23252;-73
2023/11/18 22:13:53;;;;;;;;;;;;;;;0.92;98.19;100785.88;133717;1304;22465;-73
2023/11/18 22:17:39;;;;;;;;;;;;;;;0.91;98.38;100783.98;133690;1303;22481;-73
2023/11/18 22:21:32;;;;;;;;;;;;;;;0.89;98.49;100781.64;133510;1308;22488;-74
2023/11/18 22:24:52;;;;;;;;;;;;;;;;;;;;;
2023/11/18 22:28:31;;;;;;;;;;;;;;;0.91;98.84;100777.37;133705;1303;23491;-72
2023/11/18 22:32:02;;;;;;;;;;;;;;;;;;;;;
2023/11/18 22:35:09;;;;;;;;;;;;;;;0.98;99.19;100780.10;133267;1307;22483;-73
2023/11/18 22:38:42;;;;;;;;;;;;;;;1.01;99.27;100770.54;133277;1304;22478;-73
2023/11/18 22:42:09;;;;;;;;;;;;;;;1.04;99.44;100774.19;133293;1304;22487;-74
2023/11/18 22:49:10;;;;;;;;;;;;;;;;;;;;;
2023/11/18 22:56:47;;;;;;;;;;;;;;;1.04;99.75;100777.30;133285;1307;23389;-74
2023/11/18 22:59:59;;;;;;;;;;;;;;;;;;;;;
2023/11/18 23:03:06;;;;;;;;;;;;;;;1.05;99.76;100772.55;133490;1307;23211;-73
2023/11/18 23:06:24;;;;;;;;;;;;;;;1.05;99.76;100763.30;133666;1301;23327;-76
2023/11/18 23:10:02;;;;;;;;;;;;;;;;;;;;;
2023/11/18 23:13:39;;;;;;;;;;;;;;;1.08;99.85;100740.12;133712;1303;23274;-76
2023/11/18 23:17:49;;;;;;;;;;;;;;;1.09;99.81;100726.13;133728;1302;22474;-73
2023/11/18 23:21:03;;;;;;;;;;;;;;;1.10;99.84;100718.43;133636;1301;22550;-73
2023/11/18 23:24:20;;;;;;;;;;;;;;;;;;;;;
2023/11/18 23:31:53;;;;;;;;;;;;;;;;;;;;;
2023/11/18 23:35:36;;;;;;;;;;;;;;;;;;;;;
2023/11/18 23:39:30;;;;;;;;;;;;;;;1.04;99.87;100701.69;129758;1298;5376043;-77
2023/11/18 23:43:00;;;;;;;;;;;;;;;;;;;;;
2023/11/18 23:46:35;;;;;;;;;;;;;;;;;;;;;
2023/11/18 23:50:15;;;;;;;;;;;;;;;;;;;;;